Startpagina
METAR-TAF:

METAR-TAF

Vliegvelden :

Luchthaven Maya-Maya

Brazzaville, Congo

breedte: 04-15S, lengte: 015-15E, hoogte: 319 m

Actueel weer

Dit bericht is 38 minuten geleden gemaakt, om 09:00 UTC
Wind 8 kt uit het zuidwesten, variërend tussen het zuidzuidwesten en het westen
Temperatuur 24°C
Vochtigheid 69%
Druk 1018 hPa
Zicht: 7000 m
Verspreide wolken op 1700 ft

METAR: FCBB 250900Z 22008KT 200V260 7000 SCT017 24/18 Q1018 NOSIG

Tijdstip: 10:38 (09:38 UTC)

Verwachting

Dit bericht is 4 uur en het 38 minuten geleden gemaakt, om 05:00 UTC
Verwachting geldig van 25 om 06 UTC tot 26 om 12 UTC
Wind 4 kt uit het westzuidwesten
Zicht: 6000 m
Weinig wolken op 2000 ft
Kans 30%
van 25 om 06 UTC tot 25 om 08 UTC
Zicht: 4000 m
nevel,

TAF: FCBB 250500Z 2506/2612 25004KT 6000 FEW020 PROB30 2506/2508 4000 BR

Waarnemingen en weersverwachtingen van meer dan 4000 vliegvelden (METAR en TAF).

De beschikbare stations zijn de gele en rode punten op de kaart.

Ga met uw muis naar het station om de naam te zien.

Klik dan om waarnemingen en weersverwachtingen te zien.

kaart wijzigen: klik op de groene knoppen met een zwart kruis om in te zoomen, op de groene knop met een streepje om uit te zoomen of op de groene pijlen voor aangrenzende kaarten.


METAR-TAF: